createdAt,value
2022-09-28T00:02:24.427Z,16.86
2022-09-28T00:04:51.298Z,16.80
2022-09-28T00:07:18.063Z,16.87
2022-09-28T00:09:44.893Z,16.91
2022-09-28T00:12:11.864Z,16.87
2022-09-28T00:14:40.625Z,16.74
2022-09-28T00:17:08.360Z,16.79
2022-09-28T00:19:35.182Z,16.81
2022-09-28T00:22:02.070Z,16.81
2022-09-28T00:24:29.628Z,16.80
2022-09-28T00:27:00.734Z,17.04
2022-09-28T00:29:29.059Z,17.14
2022-09-28T00:32:02.538Z,17.15
2022-09-28T00:34:32.088Z,16.65
2022-09-28T00:36:59.600Z,16.57
2022-09-28T00:39:27.205Z,16.38
2022-09-28T00:41:54.957Z,16.52
2022-09-28T00:44:42.277Z,16.47
2022-09-28T00:47:31.309Z,16.54
2022-09-28T00:49:58.223Z,16.56
2022-09-28T00:52:53.323Z,16.67
2022-09-28T00:55:27.050Z,16.33
2022-09-28T00:57:58.383Z,16.69
2022-09-28T01:00:25.904Z,16.59
2022-09-28T01:02:53.148Z,16.47
2022-09-28T01:05:20.997Z,16.23
2022-09-28T01:07:48.696Z,16.00
2022-09-28T01:10:15.932Z,15.90
2022-09-28T01:12:45.949Z,15.84
2022-09-28T01:15:15.436Z,15.82
2022-09-28T01:17:52.314Z,15.81
2022-09-28T01:20:22.678Z,15.71
2022-09-28T01:23:08.307Z,15.76
2022-09-28T01:25:38.425Z,16.23
2022-09-28T01:28:12.133Z,16.36
2022-09-28T01:30:47.217Z,16.36
2022-09-28T01:33:22.557Z,16.46
2022-09-28T01:36:07.501Z,16.26
2022-09-28T01:38:48.284Z,15.97
2022-09-28T01:41:17.951Z,15.67
2022-09-28T01:43:54.866Z,15.63
2022-09-28T01:46:27.448Z,15.48
2022-09-28T01:48:57.881Z,15.51
2022-09-28T01:51:38.100Z,15.49
2022-09-28T01:54:14.123Z,15.53
2022-09-28T01:57:07.078Z,15.41
2022-09-28T01:59:36.872Z,15.60
2022-09-28T02:02:10.145Z,15.60
2022-09-28T02:04:42.914Z,15.57
2022-09-28T02:07:21.216Z,15.81
2022-09-28T02:09:56.133Z,15.81
2022-09-28T02:12:33.060Z,15.81
2022-09-28T02:15:12.691Z,15.75
2022-09-28T02:17:40.065Z,15.67
2022-09-28T02:20:07.850Z,15.93
2022-09-28T02:22:43.967Z,16.07
2022-09-28T02:25:30.294Z,16.16
2022-09-28T02:28:04.786Z,16.23
2022-09-28T02:30:33.530Z,15.92
2022-09-28T02:33:07.538Z,15.86
2022-09-28T02:35:35.510Z,16.02
2022-09-28T02:38:02.887Z,15.52
2022-09-28T02:40:33.214Z,15.43
2022-09-28T02:43:24.024Z,15.29
2022-09-28T02:46:03.631Z,15.10
2022-09-28T02:49:22.378Z,14.98
2022-09-28T02:52:19.478Z,15.25
2022-09-28T02:55:00.196Z,15.04
2022-09-28T02:57:48.517Z,15.13
2022-09-28T03:00:22.362Z,15.04
2022-09-28T03:03:06.120Z,15.00
2022-09-28T03:05:50.017Z,15.14
2022-09-28T03:08:41.073Z,14.99
2022-09-28T03:11:28.609Z,15.19
2022-09-28T03:13:56.293Z,15.12
2022-09-28T03:16:32.198Z,15.26
2022-09-28T03:18:59.578Z,15.22
2022-09-28T03:21:26.474Z,15.25
2022-09-28T03:23:53.322Z,15.15
2022-09-28T03:26:20.246Z,15.36
2022-09-28T03:28:47.290Z,15.42
2022-09-28T03:31:21.064Z,15.53
2022-09-28T03:33:48.136Z,15.56
2022-09-28T03:36:15.319Z,15.82
2022-09-28T03:38:43.388Z,15.76
2022-09-28T03:41:11.104Z,15.38
2022-09-28T03:43:41.250Z,15.06
2022-09-28T03:46:08.411Z,14.75
2022-09-28T03:48:40.808Z,14.60
2022-09-28T03:51:11.162Z,14.62
2022-09-28T03:53:39.709Z,14.52
2022-09-28T03:56:15.379Z,14.67
2022-09-28T03:58:42.998Z,14.60
2022-09-28T04:01:16.999Z,14.65
2022-09-28T04:03:46.783Z,14.59
2022-09-28T04:06:14.773Z,14.61
2022-09-28T04:08:43.166Z,14.63
2022-09-28T04:11:10.415Z,14.46
2022-09-28T04:13:37.459Z,14.68
2022-09-28T04:16:06.676Z,14.75
2022-09-28T04:18:35.293Z,14.77
2022-09-28T04:21:14.641Z,14.88
2022-09-28T04:23:46.234Z,15.02
2022-09-28T04:26:25.113Z,15.07
2022-09-28T04:29:10.732Z,15.09
2022-09-28T04:31:46.929Z,15.13
2022-09-28T04:34:17.547Z,15.12
2022-09-28T04:36:45.418Z,14.93
2022-09-28T04:39:14.819Z,14.94
2022-09-28T04:41:47.321Z,14.91
2022-09-28T04:44:14.481Z,15.25
2022-09-28T04:46:41.300Z,15.27
2022-09-28T04:49:26.771Z,15.24
2022-09-28T04:51:56.493Z,15.21
2022-09-28T04:54:23.321Z,15.41
2022-09-28T04:56:51.263Z,15.44
2022-09-28T04:59:18.213Z,15.52
2022-09-28T05:01:45.360Z,15.67
2022-09-28T05:04:33.278Z,15.82
2022-09-28T05:07:18.278Z,16.21
2022-09-28T05:09:45.180Z,16.03
2022-09-28T05:12:11.999Z,15.94
2022-09-28T05:14:39.023Z,15.83
2022-09-28T05:17:06.034Z,15.78
2022-09-28T05:19:39.705Z,15.98
2022-09-28T05:22:11.441Z,16.13
2022-09-28T05:24:42.822Z,16.29
2022-09-28T05:27:09.884Z,15.94
2022-09-28T05:29:36.769Z,15.93
2022-09-28T05:32:42.155Z,15.80
2022-09-28T05:35:21.026Z,16.05
2022-09-28T05:37:48.709Z,16.14
2022-09-28T05:40:16.277Z,16.40
2022-09-28T05:42:43.358Z,16.36
2022-09-28T05:45:10.839Z,16.65
2022-09-28T05:47:41.947Z,16.85
2022-09-28T05:50:16.064Z,17.12
2022-09-28T05:52:43.888Z,17.22
2022-09-28T05:55:11.432Z,17.40
2022-09-28T05:57:38.904Z,17.36
2022-09-28T06:00:09.357Z,17.57
2022-09-28T06:03:05.384Z,17.44
2022-09-28T06:05:36.351Z,17.77
2022-09-28T06:08:05.404Z,18.14
2022-09-28T06:10:33.500Z,18.71
2022-09-28T06:13:01.595Z,18.89
2022-09-28T06:15:30.909Z,18.73
2022-09-28T06:18:00.742Z,19.07
2022-09-28T06:21:01.382Z,19.11
2022-09-28T06:23:34.666Z,18.73
2022-09-28T06:26:01.522Z,18.84
2022-09-28T06:28:30.161Z,19.14
2022-09-28T06:31:00.567Z,19.27
2022-09-28T06:33:28.191Z,19.07
2022-09-28T06:35:55.117Z,19.42
2022-09-28T06:38:22.031Z,19.77
2022-09-28T06:40:49.644Z,19.55
2022-09-28T06:43:16.602Z,19.48
2022-09-28T06:46:02.755Z,19.69
2022-09-28T06:48:29.740Z,19.62
2022-09-28T06:50:56.892Z,19.93
2022-09-28T06:53:48.659Z,19.82
2022-09-28T06:56:32.693Z,20.13
2022-09-28T06:59:00.133Z,20.49
2022-09-28T07:01:28.821Z,20.82
2022-09-28T07:04:28.447Z,20.95
2022-09-28T07:07:33.217Z,20.79
2022-09-28T07:10:15.688Z,20.84
2022-09-28T07:13:03.603Z,21.15
2022-09-28T07:15:39.220Z,21.20
2022-09-28T07:18:07.426Z,21.47
2022-09-28T07:20:45.672Z,21.71
2022-09-28T07:23:19.762Z,21.62
2022-09-28T07:26:23.987Z,21.80
2022-09-28T07:29:21.412Z,21.69
2022-09-28T07:32:11.088Z,21.90
2022-09-28T07:34:58.728Z,21.86
2022-09-28T07:37:46.347Z,22.16
2022-09-28T07:40:31.721Z,22.44
2022-09-28T07:43:06.677Z,22.53
2022-09-28T07:45:37.659Z,22.53
2022-09-28T07:48:05.239Z,22.63
2022-09-28T07:51:04.531Z,22.82
2022-09-28T07:53:44.550Z,22.76
2022-09-28T07:56:31.058Z,23.06
2022-09-28T07:59:20.948Z,23.36
2022-09-28T08:02:06.471Z,23.29
2022-09-28T08:04:33.410Z,23.14
2022-09-28T08:07:00.463Z,23.16
2022-09-28T08:09:27.324Z,23.47
2022-09-28T08:12:14.167Z,23.67
2022-09-28T08:15:16.572Z,24.04
2022-09-28T08:18:06.675Z,24.19
2022-09-28T08:20:52.595Z,23.94
2022-09-28T08:23:20.442Z,24.16
2022-09-28T08:25:52.634Z,24.28
2022-09-28T08:28:22.702Z,24.57
2022-09-28T08:30:52.418Z,24.49
2022-09-28T08:33:31.565Z,24.76
2022-09-28T08:36:16.842Z,24.97
2022-09-28T08:39:01.465Z,24.91
2022-09-28T08:42:02.337Z,25.22
2022-09-28T08:45:23.184Z,25.15
2022-09-28T08:49:24.160Z,25.28
2022-09-28T08:52:30.265Z,25.30
2022-09-28T08:55:04.979Z,25.57
2022-09-28T08:57:55.613Z,25.78
2022-09-28T09:00:33.656Z,25.64
2022-09-28T09:03:06.716Z,25.95
2022-09-28T09:06:18.730Z,26.03
2022-09-28T09:09:36.602Z,26.44
2022-09-28T09:12:10.002Z,26.48
2022-09-28T09:15:01.372Z,26.63
2022-09-28T09:17:59.212Z,26.66
2022-09-28T09:21:02.874Z,26.73
2022-09-28T09:23:54.240Z,26.20
2022-09-28T09:26:35.283Z,26.45
2022-09-28T09:29:20.865Z,26.55
2022-09-28T09:32:03.104Z,26.40
2022-09-28T09:34:38.060Z,26.43
2022-09-28T09:37:37.616Z,26.44
2022-09-28T09:40:38.791Z,26.43
2022-09-28T09:43:47.792Z,26.36
2022-09-28T09:47:08.201Z,26.38
2022-09-28T09:50:05.447Z,26.61
2022-09-28T09:52:52.067Z,26.68
2022-09-28T09:55:34.485Z,26.78
2022-09-28T09:58:38.580Z,27.11
2022-09-28T10:01:19.501Z,27.14
2022-09-28T10:04:20.625Z,27.52
2022-09-28T10:06:51.656Z,27.29
2022-09-28T10:09:30.508Z,27.40
2022-09-28T10:12:15.795Z,27.29
2022-09-28T10:14:42.624Z,27.45
2022-09-28T10:17:12.112Z,27.35
2022-09-28T10:19:57.308Z,27.25
2022-09-28T10:22:51.860Z,27.54
2022-09-28T10:25:20.067Z,27.19
2022-09-28T10:27:51.485Z,27.49
2022-09-28T10:30:25.425Z,27.38
2022-09-28T10:32:55.558Z,27.73
2022-09-28T10:35:27.167Z,27.75
2022-09-28T10:38:01.776Z,28.16
2022-09-28T10:41:01.783Z,28.57
2022-09-28T10:44:06.446Z,28.78
2022-09-28T10:46:43.377Z,28.44
2022-09-28T10:49:18.879Z,28.36
2022-09-28T10:51:56.230Z,28.62
2022-09-28T10:54:32.173Z,28.67
2022-09-28T10:57:01.054Z,28.30
2022-09-28T10:59:39.967Z,28.36
2022-09-28T11:02:30.389Z,28.39
2022-09-28T11:05:06.738Z,28.60
2022-09-28T11:07:48.049Z,28.89
2022-09-28T11:10:28.384Z,28.62
2022-09-28T11:13:00.180Z,28.68
2022-09-28T11:15:33.339Z,28.88
2022-09-28T11:18:29.011Z,28.73
2022-09-28T11:21:17.320Z,28.41
2022-09-28T11:24:07.566Z,28.70
2022-09-28T11:26:48.079Z,28.72
2022-09-28T11:29:38.071Z,29.07
2022-09-28T11:32:28.202Z,28.35
2022-09-28T11:35:33.331Z,27.34
2022-09-28T11:38:36.506Z,27.68
2022-09-28T11:41:23.362Z,27.79
2022-09-28T11:44:02.525Z,28.23
2022-09-28T11:47:04.908Z,28.59
2022-09-28T11:49:40.144Z,28.87
2022-09-28T11:52:17.877Z,29.10
2022-09-28T11:54:52.638Z,28.93
2022-09-28T11:57:24.071Z,29.00
2022-09-28T12:00:01.862Z,29.39
2022-09-28T12:02:36.929Z,29.50
2022-09-28T12:05:20.003Z,28.42
2022-09-28T12:07:54.611Z,28.69
2022-09-28T12:10:55.542Z,28.96
2022-09-28T12:13:47.770Z,29.40
2022-09-28T12:20:21.148Z,29.59
2022-09-28T12:23:01.230Z,29.40
2022-09-28T12:25:34.378Z,29.18
2022-09-28T12:28:12.997Z,29.52
2022-09-28T12:30:43.893Z,30.07
2022-09-28T12:33:15.575Z,30.13
2022-09-28T12:35:54.522Z,29.77
2022-09-28T12:38:42.551Z,29.55
2022-09-28T12:41:32.655Z,29.71
2022-09-28T12:44:33.217Z,30.05
2022-09-28T12:47:19.206Z,29.69
2022-09-28T12:53:15.814Z,28.42
2022-09-28T12:55:56.410Z,27.78
2022-09-28T12:58:41.253Z,28.21
2022-09-28T13:01:25.796Z,28.78
2022-09-28T13:03:52.611Z,29.49
2022-09-28T13:06:19.347Z,29.50
2022-09-28T13:09:10.293Z,29.96
2022-09-28T13:11:43.982Z,30.10
2022-09-28T13:14:30.610Z,29.80
2022-09-28T13:17:17.675Z,29.69
2022-09-28T13:19:55.517Z,30.00
2022-09-28T13:22:35.265Z,29.75
2022-09-28T13:25:14.667Z,29.83
2022-09-28T13:27:49.900Z,29.87
2022-09-28T13:30:19.540Z,30.08
2022-09-28T13:32:48.504Z,30.01
2022-09-28T13:35:20.604Z,29.91
2022-09-28T13:37:48.878Z,30.03
2022-09-28T13:40:15.783Z,29.98
2022-09-28T13:42:42.658Z,29.89
2022-09-28T13:45:22.021Z,29.75
2022-09-28T13:47:54.504Z,29.50
2022-09-28T13:50:27.675Z,29.57
2022-09-28T13:53:01.292Z,29.43
2022-09-28T13:55:33.817Z,29.49
2022-09-28T13:58:14.706Z,29.55
2022-09-28T14:00:51.575Z,29.75
2022-09-28T14:03:24.383Z,29.98
2022-09-28T14:06:00.831Z,29.94
2022-09-28T14:08:38.595Z,29.59
2022-09-28T14:11:40.330Z,29.82
2022-09-28T14:14:13.975Z,29.45
2022-09-28T14:16:42.447Z,29.38
2022-09-28T14:19:15.859Z,29.04
2022-09-28T14:21:51.736Z,29.23
2022-09-28T14:24:31.935Z,28.97
2022-09-28T14:27:01.605Z,29.16
2022-09-28T14:29:39.230Z,29.04
2022-09-28T14:32:08.716Z,28.99
2022-09-28T14:34:41.040Z,28.84
2022-09-28T14:37:41.624Z,28.55
2022-09-28T14:40:38.954Z,28.45
2022-09-28T14:43:42.841Z,28.56
2022-09-28T14:46:15.559Z,28.53
2022-09-28T14:48:53.783Z,28.58
2022-09-28T14:51:26.520Z,28.56
2022-09-28T14:53:55.508Z,28.35
2022-09-28T14:56:22.549Z,28.34
2022-09-28T14:58:55.054Z,28.39
2022-09-28T15:01:24.795Z,28.44
2022-09-28T15:03:56.320Z,28.39
2022-09-28T15:06:23.475Z,28.53
2022-09-28T15:08:50.425Z,28.25
2022-09-28T15:11:23.676Z,28.03
2022-09-28T15:13:54.037Z,27.95
2022-09-28T15:16:24.579Z,28.03
2022-09-28T15:19:09.705Z,27.92
2022-09-28T15:21:43.935Z,27.85
2022-09-28T15:25:01.442Z,27.52
2022-09-28T15:27:39.304Z,27.69
2022-09-28T15:30:25.619Z,27.55
2022-09-28T15:33:19.316Z,27.20
2022-09-28T15:35:49.898Z,27.25
2022-09-28T15:38:17.645Z,26.99
2022-09-28T15:40:45.930Z,27.02
2022-09-28T15:43:32.994Z,26.96
2022-09-28T15:46:21.173Z,26.97
2022-09-28T15:48:55.591Z,26.62
2022-09-28T15:51:24.702Z,26.26
2022-09-28T15:54:25.504Z,26.02
2022-09-28T15:56:55.385Z,25.83
2022-09-28T15:59:30.906Z,25.45
2022-09-28T16:02:19.472Z,25.26
2022-09-28T16:04:50.421Z,25.18
2022-09-28T16:07:23.338Z,25.03
2022-09-28T16:10:01.851Z,24.79
2022-09-28T16:12:43.369Z,24.81
2022-09-28T16:15:18.284Z,24.71
2022-09-28T16:18:03.158Z,24.65
2022-09-28T16:20:36.510Z,24.64
2022-09-28T16:23:30.810Z,24.48
2022-09-28T16:26:28.761Z,24.40
2022-09-28T16:28:55.685Z,24.09
2022-09-28T16:31:27.436Z,24.02
2022-09-28T16:33:55.888Z,24.00
2022-09-28T16:36:25.922Z,23.94
2022-09-28T16:38:54.403Z,24.03
2022-09-28T16:41:25.993Z,23.95
2022-09-28T16:44:02.443Z,23.74
2022-09-28T16:46:37.499Z,23.60
2022-09-28T16:49:06.871Z,23.59
2022-09-28T16:51:33.823Z,23.35
2022-09-28T16:54:32.173Z,23.35
2022-09-28T16:56:59.311Z,23.41
2022-09-28T16:59:26.216Z,23.31
2022-09-28T17:01:53.131Z,23.26
2022-09-28T17:06:46.884Z,23.14
2022-09-28T17:09:13.740Z,23.19
2022-09-28T17:11:40.604Z,22.90
2022-09-28T17:14:08.887Z,22.79
2022-09-28T17:17:06.159Z,22.75
2022-09-28T17:19:25.135Z,22.68
2022-09-28T17:21:53.106Z,22.60
2022-09-28T17:24:20.734Z,22.62
2022-09-28T17:26:50.229Z,22.60
2022-09-28T17:29:17.826Z,22.52
2022-09-28T17:31:46.181Z,22.70
2022-09-28T17:34:15.273Z,22.67
2022-09-28T17:36:43.344Z,22.60
2022-09-28T17:39:15.735Z,22.49
2022-09-28T17:41:42.654Z,22.51
2022-09-28T17:44:09.738Z,22.33
2022-09-28T17:46:40.827Z,22.27
2022-09-28T17:49:11.682Z,22.34
2022-09-28T17:51:38.761Z,22.18
2022-09-28T17:54:07.639Z,22.30
2022-09-28T17:56:35.380Z,22.14
2022-09-28T17:59:07.644Z,22.23
2022-09-28T18:01:37.899Z,22.09
2022-09-28T18:04:08.129Z,21.85
2022-09-28T18:06:37.276Z,21.53
2022-09-28T18:09:05.441Z,21.32
2022-09-28T18:11:33.635Z,21.33
2022-09-28T18:14:00.900Z,21.15
2022-09-28T18:16:28.884Z,21.04
2022-09-28T18:18:56.037Z,20.72
2022-09-28T18:21:22.958Z,20.51
2022-09-28T18:23:51.053Z,20.26
2022-09-28T18:26:21.062Z,20.19
2022-09-28T18:28:54.295Z,19.94
2022-09-28T18:31:21.503Z,20.02
2022-09-28T18:36:35.743Z,20.47
2022-09-28T18:39:03.063Z,20.41
2022-09-28T18:41:29.944Z,20.58
2022-09-28T18:44:02.823Z,20.37
2022-09-28T18:46:34.771Z,20.23
2022-09-28T18:49:01.961Z,19.51
2022-09-28T18:51:29.260Z,19.35
2022-09-28T18:53:56.198Z,19.53
2022-09-28T18:56:23.031Z,19.84
2022-09-28T18:58:51.710Z,19.79
2022-09-28T19:01:36.556Z,20.12
2022-09-28T19:04:06.160Z,20.20
2022-09-28T19:06:34.406Z,20.06
2022-09-28T19:09:02.015Z,19.99
2022-09-28T19:11:28.965Z,20.17
2022-09-28T19:13:56.433Z,20.02
2022-09-28T19:16:29.995Z,19.87
2022-09-28T19:18:58.395Z,20.05
2022-09-28T19:21:25.693Z,20.20
2022-09-28T19:23:55.143Z,20.10
2022-09-28T19:26:25.336Z,20.06
2022-09-28T19:28:52.722Z,20.04
2022-09-28T19:31:19.922Z,20.07
2022-09-28T19:33:48.242Z,19.95
2022-09-28T19:36:18.520Z,20.11
2022-09-28T19:38:46.314Z,20.03
2022-09-28T19:41:39.334Z,19.94
2022-09-28T19:44:21.282Z,20.02
2022-09-28T19:46:48.140Z,20.21
2022-09-28T19:49:22.683Z,20.37
2022-09-28T19:52:11.658Z,20.39
2022-09-28T19:54:38.175Z,20.21
2022-09-28T19:57:08.053Z,20.17
2022-09-28T19:59:36.776Z,20.21
2022-09-28T20:02:05.837Z,20.17
2022-09-28T20:04:32.764Z,20.11
2022-09-28T20:06:59.753Z,20.18
2022-09-28T20:09:26.647Z,19.94
2022-09-28T20:11:53.473Z,19.70
2022-09-28T20:14:22.440Z,19.78
2022-09-28T20:16:51.586Z,19.61
2022-09-28T20:19:21.500Z,19.53
2022-09-28T20:21:48.848Z,19.29
2022-09-28T20:24:17.334Z,19.28
2022-09-28T20:26:46.038Z,19.15
2022-09-28T20:29:13.465Z,18.98
2022-09-28T20:31:40.482Z,19.00
2022-09-28T20:34:07.485Z,19.03
2022-09-28T20:36:34.562Z,19.10
2022-09-28T20:39:02.276Z,18.98
2022-09-28T20:41:36.768Z,19.04
2022-09-28T20:44:06.374Z,18.96
2022-09-28T20:46:35.605Z,18.82
2022-09-28T20:49:03.650Z,18.94
2022-09-28T20:51:31.168Z,19.04
2022-09-28T20:53:59.169Z,19.01
2022-09-28T20:56:31.675Z,18.97
2022-09-28T20:58:58.521Z,18.94
2022-09-28T21:01:27.896Z,18.78
2022-09-28T21:04:00.195Z,18.76
2022-09-28T21:06:29.874Z,18.96
2022-09-28T21:08:56.855Z,18.96
2022-09-28T21:11:25.737Z,19.08
2022-09-28T21:13:54.797Z,18.89
2022-09-28T21:16:21.757Z,18.84
2022-09-28T21:18:48.592Z,18.85
2022-09-28T21:21:18.172Z,18.74
2022-09-28T21:23:45.532Z,18.80
2022-09-28T21:26:24.534Z,18.77
2022-09-28T21:28:56.063Z,18.72
2022-09-28T21:31:28.718Z,18.84
2022-09-28T21:33:59.642Z,18.64
2022-09-28T21:36:26.517Z,18.57
2022-09-28T21:38:56.184Z,18.75
2022-09-28T21:41:24.302Z,18.60
2022-09-28T21:43:51.247Z,18.24
2022-09-28T21:46:18.284Z,18.27
2022-09-28T21:48:45.352Z,18.09
2022-09-28T21:51:15.906Z,18.18
2022-09-28T21:53:42.905Z,18.23
2022-09-28T21:56:12.146Z,18.24
2022-09-28T21:58:40.198Z,18.18
2022-09-28T22:01:16.928Z,18.38
2022-09-28T22:03:47.449Z,18.26
2022-09-28T22:06:16.295Z,18.11
2022-09-28T22:08:43.365Z,18.17
2022-09-28T22:11:14.058Z,18.12
2022-09-28T22:13:43.765Z,18.05
2022-09-28T22:16:12.035Z,18.33
2022-09-28T22:18:39.709Z,18.07
2022-09-28T22:21:11.464Z,18.16
2022-09-28T22:23:39.029Z,18.13
2022-09-28T22:26:10.873Z,18.24
2022-09-28T22:28:39.774Z,18.18
2022-09-28T22:31:06.680Z,18.12
2022-09-28T22:33:34.183Z,18.06
2022-09-28T22:36:01.117Z,18.11
2022-09-28T22:38:32.162Z,18.02
2022-09-28T22:40:59.062Z,17.92
2022-09-28T22:43:26.973Z,17.67
2022-09-28T22:46:11.909Z,17.77
2022-09-28T22:48:39.115Z,17.26
2022-09-28T22:51:07.178Z,17.00
2022-09-28T22:53:35.268Z,16.96
2022-09-28T22:56:05.684Z,16.86
2022-09-28T22:58:34.142Z,17.06
2022-09-28T23:01:11.382Z,17.16
2022-09-28T23:03:42.299Z,17.28
2022-09-28T23:06:11.337Z,17.39
2022-09-28T23:08:39.055Z,17.30
2022-09-28T23:11:06.578Z,17.27
2022-09-28T23:13:33.428Z,17.59
2022-09-28T23:16:03.280Z,17.56
2022-09-28T23:18:33.017Z,17.53
2022-09-28T23:21:02.138Z,17.31
2022-09-28T23:23:29.635Z,17.47
2022-09-28T23:25:57.259Z,17.14
2022-09-28T23:28:26.198Z,17.18
2022-09-28T23:30:53.914Z,17.21
2022-09-28T23:33:21.683Z,17.31
2022-09-28T23:35:49.509Z,17.31
2022-09-28T23:38:18.364Z,17.27
2022-09-28T23:40:46.817Z,17.40
2022-09-28T23:43:14.657Z,17.20
2022-09-28T23:45:44.711Z,17.30
2022-09-28T23:48:12.854Z,17.32
2022-09-28T23:50:39.632Z,17.33
2022-09-28T23:53:06.671Z,17.11
2022-09-28T23:55:33.534Z,17.08
2022-09-28T23:58:00.424Z,17.10
